Time;durP1;ratioP1;P1;durP2;ratioP2;P2;SDS_P1;SDS_P2;PMS_P1;PMS_P2;Temp;Humidity;BMP_temperature;BMP_pressure;BME280_temperature;BME280_humidity;BME280_pressure;Samples;Min_cycle;Max_cycle;Signal;HPM_P1;HPM_P2
2021/08/31 00:00:21;;;;;;;13.73;7.53;;;;;;;;;;4859663;29;51204;-67
2021/08/31 00:02:47;;;;;;;14.70;7.95;;;;;;;;;;4862677;28;51004;-69
2021/08/31 00:05:14;;;;;;;15.10;8.32;;;;;;;;;;4861577;29;51743;-67
2021/08/31 00:07:42;;;;;;;14.70;8.95;;;;;;;;;;4864110;28;51561;-70
2021/08/31 00:10:09;;;;;;;16.05;8.18;;;;;;;;;;4862891;29;51158;-67
2021/08/31 00:12:35;;;;;;;20.63;8.43;;;;;;;;;;4866078;29;50932;-67
2021/08/31 00:15:02;;;;;;;18.75;7.45;;;;;;;;;;4866161;29;51006;-66
2021/08/31 00:17:28;;;;;;;14.13;7.65;;;;;;;;;;4864894;29;51377;-66
2021/08/31 00:19:54;;;;;;;13.40;8.13;;;;;;;;;;4866171;29;51132;-68
2021/08/31 00:22:20;;;;;;;17.10;7.68;;;;;;;;;;4865324;29;51020;-66
2021/08/31 00:24:46;;;;;;;17.48;8.32;;;;;;;;;;4865560;28;50947;-67
2021/08/31 00:27:12;;;;;;;15.15;8.75;;;;;;;;;;4863592;29;52123;-64
2021/08/31 00:29:38;;;;;;;12.73;7.88;;;;;;;;;;4864457;28;51256;-66
2021/08/31 00:32:05;;;;;;;17.30;7.32;;;;;;;;;;4864499;29;51293;-64
2021/08/31 00:34:31;;;;;;;16.55;7.75;;;;;;;;;;4864224;29;50993;-65
2021/08/31 00:36:57;;;;;;;18.40;7.85;;;;;;;;;;4864656;28;51191;-68
2021/08/31 00:39:23;;;;;;;13.10;8.35;;;;;;;;;;4864287;29;51146;-69
2021/08/31 00:41:49;;;;;;;14.68;6.53;;;;;;;;;;4863648;28;50957;-69
2021/08/31 00:44:22;;;;;;;15.52;7.40;;;;;;;;;;4863406;29;51727;-69
2021/08/31 00:46:55;;;;;;;12.07;7.40;;;;;;;;;;4864052;29;50997;-70
2021/08/31 00:49:21;;;;;;;16.95;7.78;;;;;;;;;;4862460;29;52744;-70
2021/08/31 00:51:48;;;;;;;12.40;7.75;;;;;;;;;;4863722;29;51109;-69
2021/08/31 00:54:17;;;;;;;17.05;8.05;;;;;;;;;;4862396;29;51215;-69
2021/08/31 00:56:49;;;;;;;10.23;7.65;;;;;;;;;;4848266;29;51836;-69
2021/08/31 00:59:19;;;;;;;11.13;7.25;;;;;;;;;;4862907;29;50967;-72
2021/08/31 01:01:54;;;;;;;12.75;7.35;;;;;;;;;;4862602;29;51063;-68
2021/08/31 01:04:24;;;;;;;12.80;7.40;;;;;;;;;;4862389;29;50984;-68
2021/08/31 01:06:53;;;;;;;11.23;7.35;;;;;;;;;;4862166;29;51011;-67
2021/08/31 01:09:23;;;;;;;10.60;6.75;;;;;;;;;;4861860;29;51984;-68
2021/08/31 01:11:50;;;;;;;14.57;6.82;;;;;;;;;;4861623;29;52893;-69
2021/08/31 01:14:17;;;;;;;12.95;7.50;;;;;;;;;;4861560;29;51074;-71
2021/08/31 01:16:43;;;;;;;18.92;7.20;;;;;;;;;;4861816;28;51027;-69
2021/08/31 01:19:11;;;;;;;15.40;7.60;;;;;;;;;;4860643;29;51085;-73
2021/08/31 01:21:37;;;;;;;10.88;7.25;;;;;;;;;;4861834;29;51585;-67
2021/08/31 01:24:03;;;;;;;13.18;7.10;;;;;;;;;;4861248;28;51719;-67
2021/08/31 01:26:29;;;;;;;11.73;7.35;;;;;;;;;;4860484;29;51482;-67
2021/08/31 01:28:55;;;;;;;12.50;7.15;;;;;;;;;;4860637;29;51035;-72
2021/08/31 01:31:21;;;;;;;14.88;8.05;;;;;;;;;;4864557;28;51075;-66
2021/08/31 01:33:47;;;;;;;12.20;7.72;;;;;;;;;;4865213;28;52608;-66
2021/08/31 01:36:24;;;;;;;12.60;8.00;;;;;;;;;;4865213;29;51009;-69
2021/08/31 01:38:56;;;;;;;13.57;6.85;;;;;;;;;;4865066;29;51641;-67
2021/08/31 01:41:23;;;;;;;17.77;7.57;;;;;;;;;;4864919;29;51065;-66
2021/08/31 01:43:50;;;;;;;19.10;7.20;;;;;;;;;;4864494;28;52860;-68
2021/08/31 01:46:16;;;;;;;13.95;7.18;;;;;;;;;;4864433;29;51244;-66
2021/08/31 01:48:42;;;;;;;9.00;6.63;;;;;;;;;;4863476;29;51117;-66
2021/08/31 01:51:08;;;;;;;16.15;7.13;;;;;;;;;;4864294;28;51059;-68
2021/08/31 01:53:34;;;;;;;13.18;7.57;;;;;;;;;;4863865;29;51129;-63
2021/08/31 01:56:01;;;;;;;12.70;7.18;;;;;;;;;;4863454;28;52176;-65
2021/08/31 01:58:27;;;;;;;11.52;6.95;;;;;;;;;;4863837;28;50976;-66
2021/08/31 02:00:53;;;;;;;13.00;7.22;;;;;;;;;;4862583;29;51064;-65
2021/08/31 02:03:19;;;;;;;41.90;7.63;;;;;;;;;;4864060;28;51129;-67
2021/08/31 02:05:45;;;;;;;11.25;7.07;;;;;;;;;;4862740;29;51717;-70
2021/08/31 02:08:11;;;;;;;15.93;6.70;;;;;;;;;;4862501;28;51134;-71
2021/08/31 02:10:37;;;;;;;12.82;7.15;;;;;;;;;;4862949;29;51193;-69
2021/08/31 02:13:04;;;;;;;10.13;6.50;;;;;;;;;;4861282;29;51779;-69
2021/08/31 02:15:30;;;;;;;14.95;6.78;;;;;;;;;;4862127;29;51146;-66
2021/08/31 02:17:56;;;;;;;10.85;6.90;;;;;;;;;;4861469;29;51294;-67
2021/08/31 02:20:22;;;;;;;12.38;7.40;;;;;;;;;;4862103;28;51319;-66
2021/08/31 02:22:48;;;;;;;14.18;6.53;;;;;;;;;;4861221;29;51421;-66
2021/08/31 02:25:14;;;;;;;13.00;7.13;;;;;;;;;;4857789;28;51009;-69
2021/08/31 02:27:41;;;;;;;9.93;6.55;;;;;;;;;;4855363;29;53191;-65
2021/08/31 02:30:08;;;;;;;11.57;6.70;;;;;;;;;;4858005;29;50969;-66
2021/08/31 02:32:34;;;;;;;11.10;6.28;;;;;;;;;;4856475;28;51339;-68
2021/08/31 02:35:00;;;;;;;18.40;7.32;;;;;;;;;;4856339;29;51225;-68
2021/08/31 02:37:26;;;;;;;16.33;6.88;;;;;;;;;;4855890;29;52584;-67
2021/08/31 02:39:52;;;;;;;18.30;6.60;;;;;;;;;;4856575;29;53187;-67
2021/08/31 02:42:18;;;;;;;19.70;6.65;;;;;;;;;;4855558;29;51021;-67
2021/08/31 02:44:44;;;;;;;13.43;7.05;;;;;;;;;;4859743;29;51195;-65
2021/08/31 02:47:10;;;;;;;14.60;7.05;;;;;;;;;;4859544;28;50961;-67
2021/08/31 02:49:36;;;;;;;11.10;6.38;;;;;;;;;;4858757;29;52673;-66
2021/08/31 02:52:03;;;;;;;16.35;6.88;;;;;;;;;;4862540;29;51196;-67
2021/08/31 02:54:29;;;;;;;9.25;6.70;;;;;;;;;;4863058;28;50960;-66
2021/08/31 02:56:55;;;;;;;14.55;6.38;;;;;;;;;;4862140;29;51002;-66
2021/08/31 02:59:21;;;;;;;13.60;6.25;;;;;;;;;;4861522;28;51085;-66
2021/08/31 03:04:22;;;;;;;12.25;6.60;;;;;;;;;;4861187;29;51004;-64
2021/08/31 03:06:48;;;;;;;15.35;6.47;;;;;;;;;;4860339;29;50990;-67
2021/08/31 03:09:14;;;;;;;12.30;6.18;;;;;;;;;;4860683;29;51127;-66
2021/08/31 03:11:40;;;;;;;15.40;6.90;;;;;;;;;;4860419;28;52113;-66
2021/08/31 03:14:06;;;;;;;10.05;6.18;;;;;;;;;;4860770;29;51358;-67
2021/08/31 03:16:33;;;;;;;9.90;6.30;;;;;;;;;;4859614;28;51190;-66
2021/08/31 03:18:59;;;;;;;17.45;6.65;;;;;;;;;;4860348;29;51092;-65
2021/08/31 03:21:25;;;;;;;24.75;6.78;;;;;;;;;;4858961;29;51157;-65
2021/08/31 03:23:51;;;;;;;22.05;7.65;;;;;;;;;;4859580;28;52309;-67
2021/08/31 03:26:17;;;;;;;11.95;5.95;;;;;;;;;;4861094;29;51013;-66
2021/08/31 03:28:43;;;;;;;20.60;7.55;;;;;;;;;;4859415;28;51570;-67
2021/08/31 03:31:09;;;;;;;22.95;8.32;;;;;;;;;;4862022;29;51091;-67
2021/08/31 03:33:36;;;;;;;27.13;8.65;;;;;;;;;;4860684;28;51397;-66
2021/08/31 03:36:04;;;;;;;32.05;7.53;;;;;;;;;;4862601;29;51378;-66
2021/08/31 03:38:31;;;;;;;48.50;8.43;;;;;;;;;;4864149;29;51126;-66
2021/08/31 03:40:57;;;;;;;34.55;7.47;;;;;;;;;;4862887;29;51139;-69
2021/08/31 03:43:23;;;;;;;57.58;8.80;;;;;;;;;;4864393;28;51042;-69
2021/08/31 03:45:49;;;;;;;39.00;7.25;;;;;;;;;;4863490;29;52140;-68
2021/08/31 03:48:15;;;;;;;33.20;7.85;;;;;;;;;;4863348;28;51185;-65
2021/08/31 03:50:41;;;;;;;35.17;8.07;;;;;;;;;;4863127;29;51054;-68
2021/08/31 03:53:07;;;;;;;37.70;8.38;;;;;;;;;;4863281;28;51021;-65
2021/08/31 03:55:33;;;;;;;25.38;7.95;;;;;;;;;;4860802;28;52065;-66
2021/08/31 03:57:59;;;;;;;26.15;8.35;;;;;;;;;;4861519;29;51245;-65
2021/08/31 04:00:25;;;;;;;29.55;8.48;;;;;;;;;;4861992;28;51317;-65
2021/08/31 04:02:51;;;;;;;27.08;6.70;;;;;;;;;;4862387;29;51050;-65
2021/08/31 04:05:17;;;;;;;17.50;7.03;;;;;;;;;;4862270;28;51025;-65
2021/08/31 04:07:43;;;;;;;17.88;6.78;;;;;;;;;;4862096;29;52741;-67
2021/08/31 04:10:09;;;;;;;16.88;7.05;;;;;;;;;;4862533;28;51102;-65
2021/08/31 04:12:35;;;;;;;19.40;7.18;;;;;;;;;;4864181;29;51062;-64
2021/08/31 04:15:02;;;;;;;34.47;7.88;;;;;;;;;;4866650;29;51021;-66
2021/08/31 04:17:28;;;;;;;19.65;7.13;;;;;;;;;;4866019;29;52362;-67
2021/08/31 04:19:54;;;;;;;20.08;7.43;;;;;;;;;;4866406;28;51852;-67
2021/08/31 04:22:20;;;;;;;13.93;6.72;;;;;;;;;;4867037;29;52047;-67
2021/08/31 04:24:46;;;;;;;19.13;7.25;;;;;;;;;;4866074;29;51235;-67
2021/08/31 04:29:27;;;;;;;45.63;7.85;;;;;;;;;;4231303;33;50983;-70
2021/08/31 04:35:12;;;;;;;17.67;7.82;;;;;;;;;;4033966;33;52748;-71
2021/08/31 04:37:38;;;;;;;19.00;6.75;;;;;;;;;;4835887;29;50967;-73
2021/08/31 04:40:04;;;;;;;27.90;8.00;;;;;;;;;;4839297;29;59700;-68
2021/08/31 04:42:30;;;;;;;25.45;6.72;;;;;;;;;;4843527;29;52457;-70
2021/08/31 04:44:56;;;;;;;19.38;6.90;;;;;;;;;;4845189;29;50985;-68
2021/08/31 04:47:23;;;;;;;13.85;6.15;;;;;;;;;;4842940;29;51100;-68
2021/08/31 04:49:49;;;;;;;13.65;6.30;;;;;;;;;;4845698;29;50925;-70
2021/08/31 04:52:15;;;;;;;20.00;6.78;;;;;;;;;;4845751;29;53689;-68
2021/08/31 04:54:41;;;;;;;17.98;6.50;;;;;;;;;;4845511;29;51437;-69
2021/08/31 04:57:07;;;;;;;13.52;6.55;;;;;;;;;;4843835;29;51023;-70
2021/08/31 04:59:33;;;;;;;12.35;6.53;;;;;;;;;;4842846;29;50994;-68
2021/08/31 05:01:59;;;;;;;13.77;6.00;;;;;;;;;;4844572;29;52566;-70
2021/08/31 05:04:29;;;;;;;17.15;6.45;;;;;;;;;;4845329;29;51055;-67
2021/08/31 05:06:57;;;;;;;12.85;6.18;;;;;;;;;;4841250;29;51047;-68
2021/08/31 05:09:23;;;;;;;10.57;6.28;;;;;;;;;;4845703;29;50961;-68
2021/08/31 05:11:49;;;;;;;6.90;5.32;;;;;;;;;;4844613;29;51946;-68
2021/08/31 05:14:15;;;;;;;10.82;5.80;;;;;;;;;;4844856;29;53554;-69
2021/08/31 05:16:41;;;;;;;10.93;6.13;;;;;;;;;;4845467;29;52456;-69
2021/08/31 05:19:07;;;;;;;10.52;5.82;;;;;;;;;;4843763;29;51218;-68
2021/08/31 05:21:34;;;;;;;12.45;6.18;;;;;;;;;;4845843;29;50948;-70
2021/08/31 05:24:00;;;;;;;10.63;5.50;;;;;;;;;;4843953;29;53727;-68
2021/08/31 05:26:26;;;;;;;12.13;6.03;;;;;;;;;;4844328;29;51233;-68
2021/08/31 05:28:52;;;;;;;10.38;5.38;;;;;;;;;;4845093;29;51505;-67
2021/08/31 05:31:18;;;;;;;8.90;5.78;;;;;;;;;;4844988;29;50952;-70
2021/08/31 05:33:44;;;;;;;12.55;5.53;;;;;;;;;;4844867;29;50923;-68
2021/08/31 05:36:10;;;;;;;16.20;5.38;;;;;;;;;;4844696;29;52326;-68
2021/08/31 05:38:36;;;;;;;7.63;5.70;;;;;;;;;;4844996;29;51177;-68
2021/08/31 05:41:02;;;;;;;10.07;5.95;;;;;;;;;;4844547;29;50961;-68
2021/08/31 05:43:28;;;;;;;10.77;5.07;;;;;;;;;;4841875;29;51458;-70
2021/08/31 05:45:54;;;;;;;14.52;6.10;;;;;;;;;;4835391;29;53913;-71
2021/08/31 05:48:21;;;;;;;12.68;5.90;;;;;;;;;;4831613;29;51057;-67
2021/08/31 05:50:47;;;;;;;12.85;5.30;;;;;;;;;;4832009;29;50980;-68
2021/08/31 05:53:13;;;;;;;10.52;5.38;;;;;;;;;;4832039;29;51040;-72
2021/08/31 05:55:39;;;;;;;9.13;4.97;;;;;;;;;;4830684;29;51575;-71
2021/08/31 05:58:05;;;;;;;8.20;5.78;;;;;;;;;;4830922;29;51271;-69
2021/08/31 06:00:32;;;;;;;8.93;5.20;;;;;;;;;;4832034;29;51269;-69
2021/08/31 06:02:58;;;;;;;8.75;4.72;;;;;;;;;;4832312;29;52424;-71
2021/08/31 06:05:24;;;;;;;11.35;5.80;;;;;;;;;;4833074;29;50967;-72
2021/08/31 06:07:50;;;;;;;11.10;5.57;;;;;;;;;;4831857;29;54267;-68
2021/08/31 06:10:18;;;;;;;8.63;5.20;;;;;;;;;;4832135;29;51319;-72
2021/08/31 06:12:44;;;;;;;9.02;5.60;;;;;;;;;;4832237;29;50946;-70
2021/08/31 06:15:11;;;;;;;7.22;5.10;;;;;;;;;;4832372;29;51033;-69
2021/08/31 06:17:38;;;;;;;11.90;4.97;;;;;;;;;;4830038;29;50968;-71
2021/08/31 06:20:06;;;;;;;7.35;4.75;;;;;;;;;;4829487;29;54164;-70
2021/08/31 06:22:32;;;;;;;8.40;5.18;;;;;;;;;;4829383;29;51021;-69
2021/08/31 06:24:59;;;;;;;11.38;5.10;;;;;;;;;;4829366;29;51928;-68
2021/08/31 06:27:25;;;;;;;9.13;5.20;;;;;;;;;;4832686;29;50995;-71
2021/08/31 06:29:51;;;;;;;7.03;5.10;;;;;;;;;;4832198;29;53146;-72
2021/08/31 06:32:17;;;;;;;8.73;6.00;;;;;;;;;;4831667;29;51190;-68
2021/08/31 06:34:43;;;;;;;8.02;5.25;;;;;;;;;;4831416;29;51460;-72
2021/08/31 06:37:09;;;;;;;11.35;5.40;;;;;;;;;;4832318;29;51094;-70
2021/08/31 06:39:35;;;;;;;5.90;4.57;;;;;;;;;;4830924;29;51023;-68
2021/08/31 06:42:01;;;;;;;8.88;5.10;;;;;;;;;;4826314;29;52561;-71
2021/08/31 06:44:27;;;;;;;11.18;5.43;;;;;;;;;;4827910;29;50837;-68
2021/08/31 06:46:53;;;;;;;8.52;5.35;;;;;;;;;;4828593;29;51076;-70
2021/08/31 06:49:19;;;;;;;8.45;4.70;;;;;;;;;;4827027;29;51689;-67
2021/08/31 06:51:45;;;;;;;7.05;4.85;;;;;;;;;;4827373;29;52805;-69
2021/08/31 06:54:11;;;;;;;7.20;4.95;;;;;;;;;;4827185;29;51209;-68
2021/08/31 06:56:37;;;;;;;5.50;4.50;;;;;;;;;;4829221;29;51036;-70
2021/08/31 06:59:03;;;;;;;6.97;5.13;;;;;;;;;;4831852;29;50975;-71
2021/08/31 07:01:31;;;;;;;8.57;4.88;;;;;;;;;;4831911;29;51113;-68
2021/08/31 07:03:57;;;;;;;8.32;5.28;;;;;;;;;;4831173;29;53714;-69
2021/08/31 07:06:23;;;;;;;10.07;5.47;;;;;;;;;;4831666;29;50926;-69
2021/08/31 07:08:49;;;;;;;7.05;4.72;;;;;;;;;;4831958;29;50946;-68
2021/08/31 07:11:15;;;;;;;11.07;4.60;;;;;;;;;;4831242;29;51398;-70
2021/08/31 07:13:41;;;;;;;7.53;5.05;;;;;;;;;;4830310;29;53504;-69
2021/08/31 07:16:07;;;;;;;8.95;5.30;;;;;;;;;;4830271;29;50972;-68
2021/08/31 07:18:33;;;;;;;6.47;4.65;;;;;;;;;;4830241;29;50951;-68
2021/08/31 07:20:59;;;;;;;7.10;4.65;;;;;;;;;;4830094;29;51595;-68
2021/08/31 07:23:25;;;;;;;13.63;5.18;;;;;;;;;;4830217;29;52471;-70
2021/08/31 07:25:51;;;;;;;18.20;4.95;;;;;;;;;;4824880;29;52278;-70
2021/08/31 07:28:17;;;;;;;7.63;5.18;;;;;;;;;;4491573;29;51282;-69
2021/08/31 07:33:05;;;;;;;18.83;5.20;;;;;;;;;;3909930;33;63605;-69
2021/08/31 07:37:17;;;;;;;15.32;5.72;;;;;;;;;;3686095;33;58102;-68
2021/08/31 07:39:43;;;;;;;15.88;6.22;;;;;;;;;;4756911;28;51279;-71
2021/08/31 07:42:10;;;;;;;11.02;5.80;;;;;;;;;;4811844;28;80484;-68
2021/08/31 07:44:36;;;;;;;19.92;6.43;;;;;;;;;;4679858;28;69014;-73
2021/08/31 07:47:03;;;;;;;14.85;6.50;;;;;;;;;;4806517;29;74299;-69
2021/08/31 07:49:29;;;;;;;18.50;6.07;;;;;;;;;;4413129;29;73436;-71
2021/08/31 07:51:55;;;;;;;25.95;5.95;;;;;;;;;;4509744;29;51284;-68
2021/08/31 07:54:21;;;;;;;21.98;6.53;;;;;;;;;;4737025;29;53030;-67
2021/08/31 07:56:47;;;;;;;22.13;6.40;;;;;;;;;;4242536;29;55741;-67
2021/08/31 07:59:13;;;;;;;21.00;6.18;;;;;;;;;;4094159;29;55955;-67
2021/08/31 08:01:39;;;;;;;22.77;6.60;;;;;;;;;;4545008;29;51202;-66
2021/08/31 08:04:05;;;;;;;26.10;7.30;;;;;;;;;;4219700;29;53538;-68
2021/08/31 08:06:32;;;;;;;10.00;5.90;;;;;;;;;;4589097;29;70298;-63
2021/08/31 08:08:58;;;;;;;14.20;6.72;;;;;;;;;;4701315;29;72631;-64
2021/08/31 08:21:46;;;;;;;14.80;5.95;;;;;;;;;;3708996;33;53390;-65
2021/08/31 08:24:12;;;;;;;14.07;6.53;;;;;;;;;;4340156;28;50979;-73
2021/08/31 08:26:38;;;;;;;18.30;6.90;;;;;;;;;;4490873;28;51186;-66
2021/08/31 08:29:05;;;;;;;18.52;5.95;;;;;;;;;;4814608;28;52233;-68
2021/08/31 08:31:33;;;;;;;15.07;6.65;;;;;;;;;;4852713;28;51274;-66
2021/08/31 08:34:02;;;;;;;17.35;6.45;;;;;;;;;;4864917;28;51001;-65
2021/08/31 08:36:28;;;;;;;26.70;6.05;;;;;;;;;;4866785;28;50937;-66
2021/08/31 08:38:54;;;;;;;29.60;6.35;;;;;;;;;;4842065;28;52545;-64
2021/08/31 08:41:20;;;;;;;37.90;6.20;;;;;;;;;;4757014;28;51317;-75
2021/08/31 08:43:46;;;;;;;17.35;6.22;;;;;;;;;;4661371;28;54523;-69
2021/08/31 08:55:50;;;;;;;15.60;5.65;;;;;;;;;;4021202;33;51158;-70
2021/08/31 08:58:17;;;;;;;11.25;6.30;;;;;;;;;;4520503;28;74310;-70
2021/08/31 09:00:53;;;;;;;16.05;6.25;;;;;;;;;;4571175;28;81083;-71
2021/08/31 09:03:21;;;;;;;14.20;5.80;;;;;;;;;;4809404;29;70477;-67
2021/08/31 09:05:47;;;;;;;21.33;6.28;;;;;;;;;;4809176;29;73618;-69
2021/08/31 09:08:13;;;;;;;18.30;5.60;;;;;;;;;;4371484;28;72280;-68
2021/08/31 09:10:45;;;;;;;25.20;5.53;;;;;;;;;;4749290;28;74056;-72
2021/08/31 09:13:11;;;;;;;8.95;5.70;;;;;;;;;;4804883;29;92723;-68
2021/08/31 09:15:39;;;;;;;13.98;6.15;;;;;;;;;;4809815;29;68522;-69
2021/08/31 09:18:11;;;;;;;10.55;5.35;;;;;;;;;;4754318;29;72097;-70
2021/08/31 09:20:57;;;;;;;19.60;6.35;;;;;;;;;;4631202;28;72540;-67
2021/08/31 09:23:34;;;;;;;42.45;6.65;;;;;;;;;;4737662;28;82076;-69
2021/08/31 09:26:07;;;;;;;15.10;5.50;;;;;;;;;;4706400;28;67023;-73
2021/08/31 09:28:41;;;;;;;13.98;5.53;;;;;;;;;;4565751;28;74065;-71
2021/08/31 09:31:15;;;;;;;13.23;6.57;;;;;;;;;;4808455;29;72464;-69
2021/08/31 09:33:51;;;;;;;12.95;6.25;;;;;;;;;;4708437;29;73918;-72
2021/08/31 09:36:20;;;;;;;11.55;6.07;;;;;;;;;;4815940;29;80703;-70
2021/08/31 09:39:06;;;;;;;15.30;6.50;;;;;;;;;;4819569;29;51276;-71
2021/08/31 09:41:51;;;;;;;18.08;6.25;;;;;;;;;;4803767;28;51017;-74
2021/08/31 09:44:35;;;;;;;20.73;4.97;;;;;;;;;;4817267;29;51731;-66
2021/08/31 09:47:20;;;;;;;19.58;5.57;;;;;;;;;;4758326;28;52389;-69
2021/08/31 09:49:46;;;;;;;25.77;5.88;;;;;;;;;;4829982;29;70245;-68
2021/08/31 09:52:15;;;;;;;17.80;5.18;;;;;;;;;;4803140;29;72332;-70
2021/08/31 09:54:51;;;;;;;11.90;5.95;;;;;;;;;;4797613;29;73014;-70
2021/08/31 09:57:37;;;;;;;15.05;6.68;;;;;;;;;;4808335;29;74228;-71
2021/08/31 10:00:14;;;;;;;15.82;6.05;;;;;;;;;;4808651;29;82172;-70
2021/08/31 10:02:43;;;;;;;11.00;6.03;;;;;;;;;;4808798;29;69597;-75
2021/08/31 10:05:09;;;;;;;16.17;4.72;;;;;;;;;;4806737;29;73587;-71
2021/08/31 10:07:35;;;;;;;10.30;5.47;;;;;;;;;;4797849;29;73931;-69
2021/08/31 10:10:02;;;;;;;19.58;5.70;;;;;;;;;;4802395;29;82334;-69
2021/08/31 10:12:29;;;;;;;11.95;5.28;;;;;;;;;;4809638;29;69237;-74
2021/08/31 10:14:57;;;;;;;18.77;5.25;;;;;;;;;;4806074;29;73932;-74
2021/08/31 10:17:26;;;;;;;18.58;5.40;;;;;;;;;;4807754;29;70234;-73
2021/08/31 10:19:54;;;;;;;14.23;6.22;;;;;;;;;;4807517;29;73687;-72
2021/08/31 10:22:21;;;;;;;18.10;5.40;;;;;;;;;;4795625;29;82158;-70
2021/08/31 10:24:47;;;;;;;14.73;5.55;;;;;;;;;;4795654;29;70002;-74
2021/08/31 10:27:44;;;;;;;14.10;5.50;;;;;;;;;;4772563;29;73126;-73
2021/08/31 10:30:19;;;;;;;11.70;5.15;;;;;;;;;;4792716;29;70858;-70
2021/08/31 10:32:58;;;;;;;10.55;5.28;;;;;;;;;;4795140;29;82115;-66
2021/08/31 10:35:39;;;;;;;11.35;5.53;;;;;;;;;;4804972;29;51784;-71
2021/08/31 10:38:07;;;;;;;10.37;4.67;;;;;;;;;;4822371;29;51133;-70
2021/08/31 10:40:43;;;;;;;10.15;4.63;;;;;;;;;;4816153;29;51087;-73
2021/08/31 10:43:15;;;;;;;18.70;5.47;;;;;;;;;;4816362;29;51127;-65
2021/08/31 10:45:55;;;;;;;14.88;4.80;;;;;;;;;;4809052;29;54201;-70
2021/08/31 10:48:24;;;;;;;11.60;5.20;;;;;;;;;;4794307;29;51679;-70
2021/08/31 10:51:02;;;;;;;12.80;5.80;;;;;;;;;;4800015;29;51573;-70
2021/08/31 10:53:47;;;;;;;9.10;4.72;;;;;;;;;;4797365;29;50971;-71
2021/08/31 10:56:22;;;;;;;13.10;4.38;;;;;;;;;;4648548;29;53017;-78
2021/08/31 10:59:06;;;;;;;18.73;5.07;;;;;;;;;;4522909;29;51272;-69
2021/08/31 11:01:40;;;;;;;18.38;5.45;;;;;;;;;;4835317;29;51210;-67
2021/08/31 11:04:30;;;;;;;10.85;4.68;;;;;;;;;;4825885;29;51639;-67
2021/08/31 11:07:00;;;;;;;16.88;4.95;;;;;;;;;;4777221;29;51123;-66
2021/08/31 11:09:26;;;;;;;14.02;5.28;;;;;;;;;;4811312;29;53708;-68
2021/08/31 11:12:10;;;;;;;14.45;4.80;;;;;;;;;;4811657;29;51073;-67
2021/08/31 11:14:49;;;;;;;16.38;4.50;;;;;;;;;;4811253;29;51110;-66
2021/08/31 11:17:38;;;;;;;22.77;4.90;;;;;;;;;;4810534;29;51317;-64
2021/08/31 11:20:15;;;;;;;7.68;5.15;;;;;;;;;;4763468;29;52659;-68
2021/08/31 11:22:41;;;;;;;17.88;4.93;;;;;;;;;;4825703;29;51119;-68
2021/08/31 11:25:08;;;;;;;24.58;5.10;;;;;;;;;;4798238;29;51396;-72
2021/08/31 11:27:58;;;;;;;13.55;5.03;;;;;;;;;;4809739;29;51680;-66
2021/08/31 11:30:24;;;;;;;9.05;4.57;;;;;;;;;;4825659;29;51010;-67
2021/08/31 11:33:20;;;;;;;13.65;4.65;;;;;;;;;;4813089;29;54802;-66
2021/08/31 11:35:48;;;;;;;21.17;5.13;;;;;;;;;;4747464;29;51579;-70
2021/08/31 11:38:14;;;;;;;12.82;5.03;;;;;;;;;;4803780;29;50962;-68
2021/08/31 11:40:42;;;;;;;21.70;4.68;;;;;;;;;;4823108;29;51057;-71
2021/08/31 11:43:08;;;;;;;25.13;4.70;;;;;;;;;;4814525;29;54148;-68
2021/08/31 11:45:39;;;;;;;8.00;4.78;;;;;;;;;;4815362;29;50931;-69
2021/08/31 11:48:06;;;;;;;15.27;4.60;;;;;;;;;;4789948;29;51538;-69
2021/08/31 11:50:34;;;;;;;10.82;5.63;;;;;;;;;;4815780;29;50938;-69
2021/08/31 11:53:19;;;;;;;12.27;4.53;;;;;;;;;;4815365;29;51172;-66
2021/08/31 11:56:00;;;;;;;9.98;4.20;;;;;;;;;;4813900;29;52727;-69
2021/08/31 11:58:27;;;;;;;34.63;6.65;;;;;;;;;;4773212;29;51278;-66
2021/08/31 12:00:54;;;;;;;18.25;5.18;;;;;;;;;;4814819;29;51294;-68
2021/08/31 12:03:28;;;;;;;13.50;4.88;;;;;;;;;;4815576;29;51050;-70
2021/08/31 12:06:59;;;;;;;15.82;5.05;;;;;;;;;;4149765;33;51071;-67
2021/08/31 12:09:25;;;;;;;16.23;4.82;;;;;;;;;;4822877;29;51311;-67
2021/08/31 12:11:51;;;;;;;20.45;5.00;;;;;;;;;;4822734;29;51555;-72
2021/08/31 12:14:18;;;;;;;8.07;4.47;;;;;;;;;;4823987;29;52030;-64
2021/08/31 12:16:48;;;;;;;12.82;4.53;;;;;;;;;;4806939;29;51299;-66
2021/08/31 12:19:22;;;;;;;11.55;4.30;;;;;;;;;;4804970;29;50992;-67
2021/08/31 12:22:23;;;;;;;11.40;4.72;;;;;;;;;;4772266;29;50878;-65
2021/08/31 12:24:57;;;;;;;12.70;5.03;;;;;;;;;;4757350;29;53414;-66
2021/08/31 12:27:23;;;;;;;27.83;4.97;;;;;;;;;;4805352;29;50920;-65
2021/08/31 12:29:54;;;;;;;16.67;4.68;;;;;;;;;;4806934;29;51148;-65
2021/08/31 12:32:28;;;;;;;;;;;;;;;;;;4808287;29;51067;-65
2021/08/31 12:34:56;;;;;;;16.08;5.22;;;;;;;;;;4806782;29;53621;-65
2021/08/31 12:37:30;;;;;;;10.30;5.43;;;;;;;;;;4806042;29;51004;-65
2021/08/31 12:40:18;;;;;;;19.95;5.10;;;;;;;;;;4806642;29;51286;-65
2021/08/31 12:42:47;;;;;;;12.20;5.07;;;;;;;;;;4805013;29;52351;-65
2021/08/31 12:45:14;;;;;;;11.75;4.70;;;;;;;;;;4807447;29;50934;-65
2021/08/31 12:48:10;;;;;;;13.45;5.13;;;;;;;;;;4824953;29;53804;-65
2021/08/31 12:50:54;;;;;;;18.23;4.75;;;;;;;;;;4819349;29;51133;-65
2021/08/31 12:53:20;;;;;;;15.10;4.93;;;;;;;;;;4820912;29;51325;-65
2021/08/31 12:56:06;;;;;;;13.23;4.72;;;;;;;;;;4822507;29;50911;-65
2021/08/31 12:58:37;;;;;;;10.63;4.93;;;;;;;;;;4824494;29;53387;-64
2021/08/31 13:01:10;;;;;;;20.30;5.53;;;;;;;;;;4824528;29;51215;-65
2021/08/31 13:03:38;;;;;;;18.08;4.85;;;;;;;;;;4826544;29;51160;-67
2021/08/31 13:06:05;;;;;;;14.75;4.57;;;;;;;;;;4823776;29;51208;-66
2021/08/31 13:08:32;;;;;;;25.40;5.05;;;;;;;;;;4823497;29;51056;-66
2021/08/31 13:10:58;;;;;;;21.15;5.15;;;;;;;;;;4824189;29;53695;-67
2021/08/31 13:13:29;;;;;;;13.10;5.00;;;;;;;;;;4825265;29;50985;-66
2021/08/31 13:15:55;;;;;;;21.33;5.50;;;;;;;;;;4825035;29;51111;-66
2021/08/31 13:18:21;;;;;;;16.50;6.18;;;;;;;;;;4823006;29;51108;-66
2021/08/31 13:20:47;;;;;;;22.73;6.55;;;;;;;;;;4816232;29;52666;-66
2021/08/31 13:23:13;;;;;;;19.77;6.40;;;;;;;;;;4811137;29;51214;-66
2021/08/31 13:25:39;;;;;;;15.82;6.07;;;;;;;;;;4810666;29;51266;-66
2021/08/31 13:28:07;;;;;;;18.63;7.32;;;;;;;;;;4812419;29;52823;-66
2021/08/31 13:30:34;;;;;;;30.20;7.35;;;;;;;;;;4810974;29;50975;-66
2021/08/31 13:33:00;;;;;;;21.40;7.60;;;;;;;;;;4810807;29;52689;-67
2021/08/31 13:35:26;;;;;;;21.52;7.40;;;;;;;;;;4798847;29;52909;-67
2021/08/31 13:37:52;;;;;;;31.98;8.10;;;;;;;;;;4811677;29;51329;-67
2021/08/31 13:40:18;;;;;;;27.83;6.57;;;;;;;;;;4810869;29;51051;-67
2021/08/31 13:42:44;;;;;;;27.40;7.10;;;;;;;;;;4811871;29;53379;-67
2021/08/31 13:45:10;;;;;;;22.23;7.15;;;;;;;;;;4811008;29;51215;-67
2021/08/31 13:47:36;;;;;;;35.70;6.85;;;;;;;;;;4826370;29;50945;-68
2021/08/31 13:50:03;;;;;;;18.88;5.55;;;;;;;;;;4811531;29;51128;-67
2021/08/31 13:52:29;;;;;;;25.55;6.30;;;;;;;;;;4811830;29;51229;-67
2021/08/31 13:54:55;;;;;;;20.25;6.13;;;;;;;;;;4812760;29;53912;-67
2021/08/31 13:57:22;;;;;;;13.10;5.63;;;;;;;;;;4809551;29;51096;-67
2021/08/31 13:59:48;;;;;;;10.68;5.78;;;;;;;;;;4811684;29;51830;-67
2021/08/31 14:02:14;;;;;;;16.75;5.72;;;;;;;;;;4785850;29;52535;-67
2021/08/31 14:04:40;;;;;;;18.73;6.13;;;;;;;;;;4810994;29;53421;-67
2021/08/31 14:07:06;;;;;;;18.08;6.53;;;;;;;;;;4811890;29;51081;-67
2021/08/31 14:09:32;;;;;;;17.38;6.25;;;;;;;;;;4802295;29;53578;-67
2021/08/31 14:11:58;;;;;;;13.00;6.25;;;;;;;;;;4756429;29;51148;-68
2021/08/31 14:14:24;;;;;;;15.50;6.38;;;;;;;;;;4846333;29;51271;-68
2021/08/31 14:16:50;;;;;;;21.58;5.85;;;;;;;;;;4809866;29;52129;-67
2021/08/31 14:19:16;;;;;;;16.38;6.70;;;;;;;;;;4811326;29;51263;-68
2021/08/31 14:21:42;;;;;;;23.48;6.88;;;;;;;;;;4808349;29;51474;-67
2021/08/31 14:24:08;;;;;;;14.60;6.32;;;;;;;;;;4811702;29;52215;-68
2021/08/31 14:26:34;;;;;;;13.52;6.35;;;;;;;;;;4811307;29;52423;-67
2021/08/31 14:29:00;;;;;;;21.60;5.82;;;;;;;;;;4773407;29;52781;-67
2021/08/31 14:31:26;;;;;;;19.85;6.28;;;;;;;;;;4792812;29;51016;-69
2021/08/31 14:33:52;;;;;;;14.48;6.20;;;;;;;;;;4768033;29;51153;-67
2021/08/31 14:36:18;;;;;;;14.77;6.45;;;;;;;;;;4792973;29;51079;-68
2021/08/31 14:38:44;;;;;;;16.95;6.30;;;;;;;;;;4181983;29;58662;-67
2021/08/31 14:41:12;;;;;;;13.55;6.88;;;;;;;;;;4795838;29;51212;-68
2021/08/31 14:43:38;;;;;;;15.57;6.07;;;;;;;;;;4791927;29;51394;-68
2021/08/31 14:46:04;;;;;;;9.60;6.00;;;;;;;;;;4792423;29;51221;-69
2021/08/31 14:48:30;;;;;;;21.85;6.82;;;;;;;;;;4791773;29;52715;-67
2021/08/31 14:50:56;;;;;;;13.75;6.40;;;;;;;;;;4792283;29;51089;-66
2021/08/31 14:53:22;;;;;;;19.20;6.70;;;;;;;;;;4792205;29;51188;-68
2021/08/31 14:55:48;;;;;;;24.13;6.43;;;;;;;;;;4792637;29;51063;-67
2021/08/31 14:58:14;;;;;;;18.17;6.40;;;;;;;;;;4788226;29;51004;-67
2021/08/31 15:00:40;;;;;;;13.95;6.35;;;;;;;;;;4804319;29;54266;-67
2021/08/31 15:03:06;;;;;;;11.45;6.10;;;;;;;;;;4810664;29;52597;-68
2021/08/31 15:05:33;;;;;;;129.57;8.85;;;;;;;;;;4734071;29;52868;-72
2021/08/31 15:07:59;;;;;;;34.38;6.20;;;;;;;;;;4758157;29;51468;-64
2021/08/31 15:10:25;;;;;;;44.40;5.85;;;;;;;;;;4796840;29;52582;-70